sensor_id;sensor_type;location;lat;lon;timestamp;temperature;humidity
43641;DHT22;72791;52.546;13.570;2023-10-13T00:00:33;13.30;99.90
43641;DHT22;72791;52.546;13.570;2023-10-13T00:03:06;13.30;99.90
43641;DHT22;72791;52.546;13.570;2023-10-13T00:05:40;13.30;99.90
43641;DHT22;72791;52.546;13.570;2023-10-13T00:08:09;13.30;99.90
43641;DHT22;72791;52.546;13.570;2023-10-13T00:10:36;13.30;99.90
43641;DHT22;72791;52.546;13.570;2023-10-13T00:13:02;13.30;99.90
43641;DHT22;72791;52.546;13.570;2023-10-13T00:15:48;13.30;99.90
43641;DHT22;72791;52.546;13.570;2023-10-13T00:18:29;13.30;99.90
43641;DHT22;72791;52.546;13.570;2023-10-13T00:21:08;13.30;99.90
43641;DHT22;72791;52.546;13.570;2023-10-13T00:23:44;13.30;99.90
43641;DHT22;72791;52.546;13.570;2023-10-13T00:26:22;13.30;99.90
43641;DHT22;72791;52.546;13.570;2023-10-13T00:28:54;13.30;99.90
43641;DHT22;72791;52.546;13.570;2023-10-13T00:31:40;13.30;99.90
43641;DHT22;72791;52.546;13.570;2023-10-13T00:34:09;13.30;99.90
43641;DHT22;72791;52.546;13.570;2023-10-13T00:36:45;13.30;99.90
43641;DHT22;72791;52.546;13.570;2023-10-13T00:39:34;13.30;99.90
43641;DHT22;72791;52.546;13.570;2023-10-13T00:42:02;13.20;99.90
43641;DHT22;72791;52.546;13.570;2023-10-13T00:44:33;13.20;99.90
43641;DHT22;72791;52.546;13.570;2023-10-13T00:47:10;13.20;99.90
43641;DHT22;72791;52.546;13.570;2023-10-13T00:49:44;13.20;99.90
43641;DHT22;72791;52.546;13.570;2023-10-13T00:52:15;13.10;99.90
43641;DHT22;72791;52.546;13.570;2023-10-13T00:54:44;13.10;99.90
43641;DHT22;72791;52.546;13.570;2023-10-13T00:57:16;13.10;99.90
43641;DHT22;72791;52.546;13.570;2023-10-13T00:59:56;13.10;99.90
43641;DHT22;72791;52.546;13.570;2023-10-13T01:02:23;13.00;99.90
43641;DHT22;72791;52.546;13.570;2023-10-13T01:05:05;13.00;99.90
43641;DHT22;72791;52.546;13.570;2023-10-13T01:07:31;13.00;99.90
43641;DHT22;72791;52.546;13.570;2023-10-13T01:09:58;13.00;99.90
43641;DHT22;72791;52.546;13.570;2023-10-13T01:12:23;13.00;99.90
43641;DHT22;72791;52.546;13.570;2023-10-13T01:14:50;13.00;99.90
43641;DHT22;72791;52.546;13.570;2023-10-13T01:17:16;13.00;99.90
43641;DHT22;72791;52.546;13.570;2023-10-13T01:19:44;13.00;99.90
43641;DHT22;72791;52.546;13.570;2023-10-13T01:22:11;13.00;99.90
43641;DHT22;72791;52.546;13.570;2023-10-13T01:24:37;13.00;99.90
43641;DHT22;72791;52.546;13.570;2023-10-13T01:27:04;13.10;99.90
43641;DHT22;72791;52.546;13.570;2023-10-13T01:29:48;13.00;99.90
43641;DHT22;72791;52.546;13.570;2023-10-13T01:32:15;13.00;99.90
43641;DHT22;72791;52.546;13.570;2023-10-13T01:34:41;13.00;99.90
43641;DHT22;72791;52.546;13.570;2023-10-13T01:37:11;13.00;99.90
43641;DHT22;72791;52.546;13.570;2023-10-13T01:39:37;13.00;99.90
43641;DHT22;72791;52.546;13.570;2023-10-13T01:42:03;13.10;99.90
43641;DHT22;72791;52.546;13.570;2023-10-13T01:44:29;13.10;99.90
43641;DHT22;72791;52.546;13.570;2023-10-13T01:47:00;13.10;99.90
43641;DHT22;72791;52.546;13.570;2023-10-13T01:49:35;13.00;99.90
43641;DHT22;72791;52.546;13.570;2023-10-13T01:52:14;13.00;99.90
43641;DHT22;72791;52.546;13.570;2023-10-13T01:54:46;13.00;99.90
43641;DHT22;72791;52.546;13.570;2023-10-13T01:57:14;13.10;99.90
43641;DHT22;72791;52.546;13.570;2023-10-13T01:59:51;13.10;99.90
43641;DHT22;72791;52.546;13.570;2023-10-13T02:02:17;13.10;99.90
43641;DHT22;72791;52.546;13.570;2023-10-13T02:04:56;13.10;99.90
43641;DHT22;72791;52.546;13.570;2023-10-13T02:07:27;13.10;99.90
43641;DHT22;72791;52.546;13.570;2023-10-13T02:09:56;13.10;99.90
43641;DHT22;72791;52.546;13.570;2023-10-13T02:12:22;13.10;99.90
43641;DHT22;72791;52.546;13.570;2023-10-13T02:15:23;13.10;99.90
43641;DHT22;72791;52.546;13.570;2023-10-13T02:17:52;13.10;99.90
43641;DHT22;72791;52.546;13.570;2023-10-13T02:20:20;13.10;99.90
43641;DHT22;72791;52.546;13.570;2023-10-13T02:22:55;13.10;99.90
43641;DHT22;72791;52.546;13.570;2023-10-13T02:25:21;13.10;99.90
43641;DHT22;72791;52.546;13.570;2023-10-13T02:28:09;13.10;99.90
43641;DHT22;72791;52.546;13.570;2023-10-13T02:30:47;13.10;99.90
43641;DHT22;72791;52.546;13.570;2023-10-13T02:33:18;13.10;99.90
43641;DHT22;72791;52.546;13.570;2023-10-13T02:35:47;13.10;99.90
43641;DHT22;72791;52.546;13.570;2023-10-13T02:38:19;13.10;99.90
43641;DHT22;72791;52.546;13.570;2023-10-13T02:40:54;13.10;99.90
43641;DHT22;72791;52.546;13.570;2023-10-13T02:43:21;13.10;99.90
43641;DHT22;72791;52.546;13.570;2023-10-13T02:45:54;13.10;99.90
43641;DHT22;72791;52.546;13.570;2023-10-13T02:48:27;13.10;99.90
43641;DHT22;72791;52.546;13.570;2023-10-13T02:51:06;13.10;99.90
43641;DHT22;72791;52.546;13.570;2023-10-13T02:53:42;13.10;99.90
43641;DHT22;72791;52.546;13.570;2023-10-13T02:56:10;13.10;99.90
43641;DHT22;72791;52.546;13.570;2023-10-13T02:58:39;13.10;99.90
43641;DHT22;72791;52.546;13.570;2023-10-13T03:01:47;13.10;99.90
43641;DHT22;72791;52.546;13.570;2023-10-13T03:04:17;13.10;99.90
43641;DHT22;72791;52.546;13.570;2023-10-13T03:06:51;13.10;99.90
43641;DHT22;72791;52.546;13.570;2023-10-13T03:09:17;13.10;99.90
43641;DHT22;72791;52.546;13.570;2023-10-13T03:11:50;13.20;99.90
43641;DHT22;72791;52.546;13.570;2023-10-13T03:14:21;13.20;99.90
43641;DHT22;72791;52.546;13.570;2023-10-13T03:16:55;13.20;99.90
43641;DHT22;72791;52.546;13.570;2023-10-13T03:19:28;13.20;99.90
43641;DHT22;72791;52.546;13.570;2023-10-13T03:22:03;13.20;99.90
43641;DHT22;72791;52.546;13.570;2023-10-13T03:24:37;13.20;99.90
43641;DHT22;72791;52.546;13.570;2023-10-13T03:27:17;13.20;99.90
43641;DHT22;72791;52.546;13.570;2023-10-13T03:29:47;13.20;99.90
43641;DHT22;72791;52.546;13.570;2023-10-13T03:32:16;13.20;99.90
43641;DHT22;72791;52.546;13.570;2023-10-13T03:34:43;13.30;99.90
43641;DHT22;72791;52.546;13.570;2023-10-13T03:37:38;13.20;99.90
43641;DHT22;72791;52.546;13.570;2023-10-13T03:40:10;13.30;99.90
43641;DHT22;72791;52.546;13.570;2023-10-13T03:42:52;13.30;99.90
43641;DHT22;72791;52.546;13.570;2023-10-13T03:45:34;13.30;99.90
43641;DHT22;72791;52.546;13.570;2023-10-13T03:48:06;13.30;99.90
43641;DHT22;72791;52.546;13.570;2023-10-13T03:50:36;13.30;99.90
43641;DHT22;72791;52.546;13.570;2023-10-13T03:53:02;13.30;99.90
43641;DHT22;72791;52.546;13.570;2023-10-13T03:55:29;13.30;99.90
43641;DHT22;72791;52.546;13.570;2023-10-13T03:57:58;13.40;99.90
43641;DHT22;72791;52.546;13.570;2023-10-13T04:00:27;13.40;99.90
43641;DHT22;72791;52.546;13.570;2023-10-13T04:02:56;13.40;99.90
43641;DHT22;72791;52.546;13.570;2023-10-13T04:05:28;13.40;99.90
43641;DHT22;72791;52.546;13.570;2023-10-13T04:08:05;13.50;99.90
43641;DHT22;72791;52.546;13.570;2023-10-13T04:11:03;13.50;99.90
43641;DHT22;72791;52.546;13.570;2023-10-13T04:13:57;13.50;99.90
43641;DHT22;72791;52.546;13.570;2023-10-13T04:16:42;13.50;99.90
43641;DHT22;72791;52.546;13.570;2023-10-13T04:19:21;13.50;99.90
43641;DHT22;72791;52.546;13.570;2023-10-13T04:21:51;13.50;99.90
43641;DHT22;72791;52.546;13.570;2023-10-13T04:24:26;13.50;99.90
43641;DHT22;72791;52.546;13.570;2023-10-13T04:27:11;13.60;99.90
43641;DHT22;72791;52.546;13.570;2023-10-13T04:29:38;13.60;99.90
43641;DHT22;72791;52.546;13.570;2023-10-13T04:32:36;13.60;99.90
43641;DHT22;72791;52.546;13.570;2023-10-13T04:35:13;13.60;99.90
43641;DHT22;72791;52.546;13.570;2023-10-13T04:37:38;13.60;99.90
43641;DHT22;72791;52.546;13.570;2023-10-13T04:40:33;13.60;99.90
43641;DHT22;72791;52.546;13.570;2023-10-13T04:43:02;13.60;99.90
43641;DHT22;72791;52.546;13.570;2023-10-13T04:45:52;13.60;99.90
43641;DHT22;72791;52.546;13.570;2023-10-13T04:48:21;13.60;99.90
43641;DHT22;72791;52.546;13.570;2023-10-13T04:50:48;13.60;99.90
43641;DHT22;72791;52.546;13.570;2023-10-13T04:53:19;13.70;99.90
43641;DHT22;72791;52.546;13.570;2023-10-13T04:56:00;13.70;99.90
43641;DHT22;72791;52.546;13.570;2023-10-13T04:58:45;13.70;99.90
43641;DHT22;72791;52.546;13.570;2023-10-13T05:01:29;13.70;99.90
43641;DHT22;72791;52.546;13.570;2023-10-13T05:04:25;13.70;99.90
43641;DHT22;72791;52.546;13.570;2023-10-13T05:07:05;13.70;99.90
43641;DHT22;72791;52.546;13.570;2023-10-13T05:09:51;13.80;99.90
43641;DHT22;72791;52.546;13.570;2023-10-13T05:12:35;13.80;99.90
43641;DHT22;72791;52.546;13.570;2023-10-13T05:15:20;13.80;99.90
43641;DHT22;72791;52.546;13.570;2023-10-13T05:18:05;13.80;99.90
43641;DHT22;72791;52.546;13.570;2023-10-13T05:20:49;13.80;99.90
43641;DHT22;72791;52.546;13.570;2023-10-13T05:23:35;13.80;99.90
43641;DHT22;72791;52.546;13.570;2023-10-13T05:26:20;13.90;99.90
43641;DHT22;72791;52.546;13.570;2023-10-13T05:29:08;13.90;99.90
43641;DHT22;72791;52.546;13.570;2023-10-13T05:31:53;13.90;99.90
43641;DHT22;72791;52.546;13.570;2023-10-13T05:34:38;13.90;99.90
43641;DHT22;72791;52.546;13.570;2023-10-13T05:37:24;13.90;99.90
43641;DHT22;72791;52.546;13.570;2023-10-13T05:40:09;13.90;99.90
43641;DHT22;72791;52.546;13.570;2023-10-13T05:42:56;14.00;99.90
43641;DHT22;72791;52.546;13.570;2023-10-13T05:45:40;14.00;99.90
43641;DHT22;72791;52.546;13.570;2023-10-13T05:48:26;14.00;99.90
43641;DHT22;72791;52.546;13.570;2023-10-13T05:51:28;14.10;99.90
43641;DHT22;72791;52.546;13.570;2023-10-13T05:54:14;14.10;99.90
43641;DHT22;72791;52.546;13.570;2023-10-13T05:59:31;14.10;99.90
43641;DHT22;72791;52.546;13.570;2023-10-13T06:02:18;14.20;99.90
43641;DHT22;72791;52.546;13.570;2023-10-13T06:05:06;14.20;99.90
43641;DHT22;72791;52.546;13.570;2023-10-13T06:07:51;14.20;99.90
43641;DHT22;72791;52.546;13.570;2023-10-13T06:10:37;14.20;99.90
43641;DHT22;72791;52.546;13.570;2023-10-13T06:13:22;14.30;99.90
43641;DHT22;72791;52.546;13.570;2023-10-13T06:16:10;14.40;99.90
43641;DHT22;72791;52.546;13.570;2023-10-13T06:18:55;14.50;99.90
43641;DHT22;72791;52.546;13.570;2023-10-13T06:21:46;14.60;99.90
43641;DHT22;72791;52.546;13.570;2023-10-13T06:24:31;14.70;99.90
43641;DHT22;72791;52.546;13.570;2023-10-13T06:27:16;14.90;99.90
43641;DHT22;72791;52.546;13.570;2023-10-13T06:30:02;14.90;99.90
43641;DHT22;72791;52.546;13.570;2023-10-13T06:32:31;15.00;99.90
43641;DHT22;72791;52.546;13.570;2023-10-13T06:34:58;15.10;99.90
43641;DHT22;72791;52.546;13.570;2023-10-13T06:37:33;15.10;99.90
43641;DHT22;72791;52.546;13.570;2023-10-13T06:40:20;15.10;99.90
43641;DHT22;72791;52.546;13.570;2023-10-13T06:42:59;15.00;99.90
43641;DHT22;72791;52.546;13.570;2023-10-13T06:45:45;14.90;99.90
43641;DHT22;72791;52.546;13.570;2023-10-13T06:48:16;14.90;99.90
43641;DHT22;72791;52.546;13.570;2023-10-13T06:50:48;14.90;99.90
43641;DHT22;72791;52.546;13.570;2023-10-13T06:53:15;14.90;99.90
43641;DHT22;72791;52.546;13.570;2023-10-13T06:55:41;15.00;99.90
43641;DHT22;72791;52.546;13.570;2023-10-13T06:58:13;15.10;99.90
43641;DHT22;72791;52.546;13.570;2023-10-13T07:00:42;15.20;99.90
43641;DHT22;72791;52.546;13.570;2023-10-13T07:03:24;15.30;99.90
43641;DHT22;72791;52.546;13.570;2023-10-13T07:05:51;15.40;99.90
43641;DHT22;72791;52.546;13.570;2023-10-13T07:08:17;15.50;99.90
43641;DHT22;72791;52.546;13.570;2023-10-13T07:10:54;15.60;99.90
43641;DHT22;72791;52.546;13.570;2023-10-13T07:13:39;15.80;99.90
43641;DHT22;72791;52.546;13.570;2023-10-13T07:16:06;16.00;99.90
43641;DHT22;72791;52.546;13.570;2023-10-13T07:18:38;16.30;99.90
43641;DHT22;72791;52.546;13.570;2023-10-13T07:21:15;16.50;99.90
43641;DHT22;72791;52.546;13.570;2023-10-13T07:23:41;16.70;99.90
43641;DHT22;72791;52.546;13.570;2023-10-13T07:26:15;16.90;99.90
43641;DHT22;72791;52.546;13.570;2023-10-13T07:28:41;17.00;99.90
43641;DHT22;72791;52.546;13.570;2023-10-13T07:31:15;17.10;99.90
43641;DHT22;72791;52.546;13.570;2023-10-13T07:33:41;17.10;99.90
43641;DHT22;72791;52.546;13.570;2023-10-13T07:36:08;17.20;99.90
43641;DHT22;72791;52.546;13.570;2023-10-13T07:38:58;17.20;99.90
43641;DHT22;72791;52.546;13.570;2023-10-13T07:41:42;17.20;99.90
43641;DHT22;72791;52.546;13.570;2023-10-13T07:44:08;17.30;99.90
43641;DHT22;72791;52.546;13.570;2023-10-13T07:46:35;17.30;99.90
43641;DHT22;72791;52.546;13.570;2023-10-13T07:49:02;17.30;99.90
43641;DHT22;72791;52.546;13.570;2023-10-13T07:51:35;17.20;99.90
43641;DHT22;72791;52.546;13.570;2023-10-13T07:54:13;17.30;99.90
43641;DHT22;72791;52.546;13.570;2023-10-13T07:56:47;17.30;99.90
43641;DHT22;72791;52.546;13.570;2023-10-13T07:59:16;17.40;99.90
43641;DHT22;72791;52.546;13.570;2023-10-13T08:01:42;17.40;99.90
43641;DHT22;72791;52.546;13.570;2023-10-13T08:04:11;17.50;99.90
43641;DHT22;72791;52.546;13.570;2023-10-13T08:06:38;17.50;99.90
43641;DHT22;72791;52.546;13.570;2023-10-13T08:09:07;17.60;99.90
43641;DHT22;72791;52.546;13.570;2023-10-13T08:11:37;17.60;99.90
43641;DHT22;72791;52.546;13.570;2023-10-13T08:14:04;17.70;99.90
43641;DHT22;72791;52.546;13.570;2023-10-13T08:16:38;17.70;99.90
43641;DHT22;72791;52.546;13.570;2023-10-13T08:19:16;17.70;99.90
43641;DHT22;72791;52.546;13.570;2023-10-13T08:21:43;17.70;99.90
43641;DHT22;72791;52.546;13.570;2023-10-13T08:24:18;17.70;99.90
43641;DHT22;72791;52.546;13.570;2023-10-13T08:27:02;17.80;99.90
43641;DHT22;72791;52.546;13.570;2023-10-13T08:29:41;17.70;99.90
43641;DHT22;72791;52.546;13.570;2023-10-13T08:32:22;17.80;99.90
43641;DHT22;72791;52.546;13.570;2023-10-13T08:35:01;17.90;99.90
43641;DHT22;72791;52.546;13.570;2023-10-13T08:37:31;17.90;99.90
43641;DHT22;72791;52.546;13.570;2023-10-13T08:40:23;18.10;99.90
43641;DHT22;72791;52.546;13.570;2023-10-13T08:43:13;18.30;99.90
43641;DHT22;72791;52.546;13.570;2023-10-13T08:45:42;18.40;99.90
43641;DHT22;72791;52.546;13.570;2023-10-13T08:48:11;18.40;99.90
43641;DHT22;72791;52.546;13.570;2023-10-13T08:50:50;18.40;99.90
43641;DHT22;72791;52.546;13.570;2023-10-13T08:53:28;18.50;99.90
43641;DHT22;72791;52.546;13.570;2023-10-13T08:56:04;18.70;99.90
43641;DHT22;72791;52.546;13.570;2023-10-13T08:58:43;18.70;99.90
43641;DHT22;72791;52.546;13.570;2023-10-13T09:01:29;18.70;99.90
43641;DHT22;72791;52.546;13.570;2023-10-13T09:04:18;18.70;99.90
43641;DHT22;72791;52.546;13.570;2023-10-13T09:09:18;18.90;99.90
43641;DHT22;72791;52.546;13.570;2023-10-13T09:11:55;18.80;99.90
43641;DHT22;72791;52.546;13.570;2023-10-13T09:14:42;18.80;99.90
43641;DHT22;72791;52.546;13.570;2023-10-13T09:17:25;18.80;99.90
43641;DHT22;72791;52.546;13.570;2023-10-13T09:20:06;18.90;99.90
43641;DHT22;72791;52.546;13.570;2023-10-13T09:22:48;18.90;99.90
43641;DHT22;72791;52.546;13.570;2023-10-13T09:25:39;19.00;99.90
43641;DHT22;72791;52.546;13.570;2023-10-13T09:28:19;19.00;99.90
43641;DHT22;72791;52.546;13.570;2023-10-13T09:30:51;18.90;99.90
43641;DHT22;72791;52.546;13.570;2023-10-13T09:33:37;18.80;99.90
43641;DHT22;72791;52.546;13.570;2023-10-13T09:36:14;18.70;99.90
43641;DHT22;72791;52.546;13.570;2023-10-13T09:38:43;18.70;99.90
43641;DHT22;72791;52.546;13.570;2023-10-13T09:41:40;18.70;99.90
43641;DHT22;72791;52.546;13.570;2023-10-13T09:44:06;18.70;99.90
43641;DHT22;72791;52.546;13.570;2023-10-13T09:46:37;18.70;99.90
43641;DHT22;72791;52.546;13.570;2023-10-13T09:49:12;18.80;99.90
43641;DHT22;72791;52.546;13.570;2023-10-13T09:51:48;18.90;99.90
43641;DHT22;72791;52.546;13.570;2023-10-13T09:54:20;19.00;99.90
43641;DHT22;72791;52.546;13.570;2023-10-13T09:56:59;19.10;99.90
43641;DHT22;72791;52.546;13.570;2023-10-13T09:59:35;19.10;99.90
43641;DHT22;72791;52.546;13.570;2023-10-13T10:02:06;19.10;99.90
43641;DHT22;72791;52.546;13.570;2023-10-13T10:04:55;19.00;99.90
43641;DHT22;72791;52.546;13.570;2023-10-13T10:07:55;19.00;99.90
43641;DHT22;72791;52.546;13.570;2023-10-13T10:10:22;19.00;99.90
43641;DHT22;72791;52.546;13.570;2023-10-13T10:13:14;19.10;99.90
43641;DHT22;72791;52.546;13.570;2023-10-13T10:15:46;19.10;99.90
43641;DHT22;72791;52.546;13.570;2023-10-13T10:18:23;19.10;99.90
43641;DHT22;72791;52.546;13.570;2023-10-13T10:20:51;19.00;99.90
43641;DHT22;72791;52.546;13.570;2023-10-13T10:23:25;18.90;99.90
43641;DHT22;72791;52.546;13.570;2023-10-13T10:25:53;18.80;99.90
43641;DHT22;72791;52.546;13.570;2023-10-13T10:28:36;18.80;99.90
43641;DHT22;72791;52.546;13.570;2023-10-13T10:31:06;18.90;99.90
43641;DHT22;72791;52.546;13.570;2023-10-13T10:33:38;18.90;99.90
43641;DHT22;72791;52.546;13.570;2023-10-13T10:36:07;18.90;99.90
43641;DHT22;72791;52.546;13.570;2023-10-13T10:38:54;18.90;99.90
43641;DHT22;72791;52.546;13.570;2023-10-13T10:41:28;19.00;99.90
43641;DHT22;72791;52.546;13.570;2023-10-13T10:44:13;19.10;99.90
43641;DHT22;72791;52.546;13.570;2023-10-13T10:46:49;19.00;99.90
43641;DHT22;72791;52.546;13.570;2023-10-13T10:49:22;18.90;99.90
43641;DHT22;72791;52.546;13.570;2023-10-13T10:52:01;18.90;99.90
43641;DHT22;72791;52.546;13.570;2023-10-13T10:54:30;18.80;99.90
43641;DHT22;72791;52.546;13.570;2023-10-13T10:56:59;18.60;99.90
43641;DHT22;72791;52.546;13.570;2023-10-13T10:59:46;18.50;99.90
43641;DHT22;72791;52.546;13.570;2023-10-13T11:02:12;18.40;99.90
43641;DHT22;72791;52.546;13.570;2023-10-13T11:04:43;18.40;99.90
43641;DHT22;72791;52.546;13.570;2023-10-13T11:07:23;18.30;99.90
43641;DHT22;72791;52.546;13.570;2023-10-13T11:09:52;18.40;99.90
43641;DHT22;72791;52.546;13.570;2023-10-13T11:12:32;18.60;99.90
43641;DHT22;72791;52.546;13.570;2023-10-13T11:15:06;18.70;99.90
43641;DHT22;72791;52.546;13.570;2023-10-13T11:17:51;18.80;99.90
43641;DHT22;72791;52.546;13.570;2023-10-13T11:20:20;18.90;99.90
43641;DHT22;72791;52.546;13.570;2023-10-13T11:23:00;19.00;99.90
43641;DHT22;72791;52.546;13.570;2023-10-13T11:25:31;19.20;99.90
43641;DHT22;72791;52.546;13.570;2023-10-13T11:28:14;19.30;99.90
43641;DHT22;72791;52.546;13.570;2023-10-13T11:30:49;19.50;99.90
43641;DHT22;72791;52.546;13.570;2023-10-13T11:33:18;19.50;99.90
43641;DHT22;72791;52.546;13.570;2023-10-13T11:35:50;19.40;99.90
43641;DHT22;72791;52.546;13.570;2023-10-13T11:41:03;19.30;99.90
43641;DHT22;72791;52.546;13.570;2023-10-13T11:46:13;19.30;99.90
43641;DHT22;72791;52.546;13.570;2023-10-13T11:48:42;19.20;99.90
43641;DHT22;72791;52.546;13.570;2023-10-13T11:53:38;19.20;99.90
43641;DHT22;72791;52.546;13.570;2023-10-13T11:56:12;19.20;99.90
43641;DHT22;72791;52.546;13.570;2023-10-13T11:58:39;19.30;99.90
43641;DHT22;72791;52.546;13.570;2023-10-13T12:01:06;19.40;99.90
43641;DHT22;72791;52.546;13.570;2023-10-13T12:03:36;19.40;99.90
43641;DHT22;72791;52.546;13.570;2023-10-13T12:06:21;19.50;99.90
43641;DHT22;72791;52.546;13.570;2023-10-13T12:09:06;19.50;99.90
43641;DHT22;72791;52.546;13.570;2023-10-13T12:11:42;19.50;99.90
43641;DHT22;72791;52.546;13.570;2023-10-13T12:14:08;19.50;99.90
43641;DHT22;72791;52.546;13.570;2023-10-13T12:16:46;19.50;99.90
43641;DHT22;72791;52.546;13.570;2023-10-13T12:19:21;19.60;99.90
43641;DHT22;72791;52.546;13.570;2023-10-13T12:21:59;19.70;99.90
43641;DHT22;72791;52.546;13.570;2023-10-13T12:24:33;19.70;99.90
43641;DHT22;72791;52.546;13.570;2023-10-13T12:27:05;19.70;99.90
43641;DHT22;72791;52.546;13.570;2023-10-13T12:29:52;19.70;99.90
43641;DHT22;72791;52.546;13.570;2023-10-13T12:32:18;19.80;99.90
43641;DHT22;72791;52.546;13.570;2023-10-13T12:35:00;19.80;99.90
43641;DHT22;72791;52.546;13.570;2023-10-13T12:37:30;19.90;99.90
43641;DHT22;72791;52.546;13.570;2023-10-13T12:40:15;20.00;99.90
43641;DHT22;72791;52.546;13.570;2023-10-13T12:43:00;20.10;99.90
43641;DHT22;72791;52.546;13.570;2023-10-13T12:45:46;20.10;99.90
43641;DHT22;72791;52.546;13.570;2023-10-13T12:48:32;20.20;99.90
43641;DHT22;72791;52.546;13.570;2023-10-13T12:51:17;20.30;99.90
43641;DHT22;72791;52.546;13.570;2023-10-13T12:53:53;20.40;99.90
43641;DHT22;72791;52.546;13.570;2023-10-13T12:56:20;20.50;99.90
43641;DHT22;72791;52.546;13.570;2023-10-13T12:58:53;20.60;99.90
43641;DHT22;72791;52.546;13.570;2023-10-13T13:01:23;20.60;99.90
43641;DHT22;72791;52.546;13.570;2023-10-13T13:03:52;20.70;99.90
43641;DHT22;72791;52.546;13.570;2023-10-13T13:06:24;20.70;99.90
43641;DHT22;72791;52.546;13.570;2023-10-13T13:08:56;20.80;99.90
43641;DHT22;72791;52.546;13.570;2023-10-13T13:11:23;20.70;99.90
43641;DHT22;72791;52.546;13.570;2023-10-13T13:13:49;20.80;99.90
43641;DHT22;72791;52.546;13.570;2023-10-13T13:16:16;20.80;99.90
43641;DHT22;72791;52.546;13.570;2023-10-13T13:18:56;20.90;99.90
43641;DHT22;72791;52.546;13.570;2023-10-13T13:21:21;21.00;99.90
43641;DHT22;72791;52.546;13.570;2023-10-13T13:23:53;21.10;99.90
43641;DHT22;72791;52.546;13.570;2023-10-13T13:26:24;21.10;99.90
43641;DHT22;72791;52.546;13.570;2023-10-13T13:28:50;21.20;99.90
43641;DHT22;72791;52.546;13.570;2023-10-13T13:31:17;21.10;99.90
43641;DHT22;72791;52.546;13.570;2023-10-13T13:33:44;21.20;99.90
43641;DHT22;72791;52.546;13.570;2023-10-13T13:36:11;21.20;99.90
43641;DHT22;72791;52.546;13.570;2023-10-13T13:38:41;21.30;99.90
43641;DHT22;72791;52.546;13.570;2023-10-13T13:41:13;21.40;99.90
43641;DHT22;72791;52.546;13.570;2023-10-13T13:43:47;21.40;99.90
43641;DHT22;72791;52.546;13.570;2023-10-13T13:46:22;21.50;99.90
43641;DHT22;72791;52.546;13.570;2023-10-13T13:49:08;21.50;99.90
43641;DHT22;72791;52.546;13.570;2023-10-13T13:51:46;21.50;99.90
43641;DHT22;72791;52.546;13.570;2023-10-13T13:54:20;21.50;99.90
43641;DHT22;72791;52.546;13.570;2023-10-13T13:56:47;21.60;99.90
43641;DHT22;72791;52.546;13.570;2023-10-13T13:59:15;21.70;99.90
43641;DHT22;72791;52.546;13.570;2023-10-13T14:01:45;21.70;99.90
43641;DHT22;72791;52.546;13.570;2023-10-13T14:04:11;21.70;99.90
43641;DHT22;72791;52.546;13.570;2023-10-13T14:06:39;21.60;99.90
43641;DHT22;72791;52.546;13.570;2023-10-13T14:09:05;21.60;99.90
43641;DHT22;72791;52.546;13.570;2023-10-13T14:11:41;21.60;99.90
43641;DHT22;72791;52.546;13.570;2023-10-13T14:14:27;21.60;99.90
43641;DHT22;72791;52.546;13.570;2023-10-13T14:16:53;21.70;99.90
43641;DHT22;72791;52.546;13.570;2023-10-13T14:19:19;21.70;99.90
43641;DHT22;72791;52.546;13.570;2023-10-13T14:22:05;21.90;99.90
43641;DHT22;72791;52.546;13.570;2023-10-13T14:24:35;22.00;99.90
43641;DHT22;72791;52.546;13.570;2023-10-13T14:27:02;22.10;99.90
43641;DHT22;72791;52.546;13.570;2023-10-13T14:29:41;22.00;99.90
43641;DHT22;72791;52.546;13.570;2023-10-13T14:32:14;22.00;99.90
43641;DHT22;72791;52.546;13.570;2023-10-13T14:34:41;22.10;99.90
43641;DHT22;72791;52.546;13.570;2023-10-13T14:37:08;22.10;99.90
43641;DHT22;72791;52.546;13.570;2023-10-13T14:39:34;22.10;99.90
43641;DHT22;72791;52.546;13.570;2023-10-13T14:42:02;22.00;99.90
43641;DHT22;72791;52.546;13.570;2023-10-13T14:44:32;22.00;99.90
43641;DHT22;72791;52.546;13.570;2023-10-13T14:46:57;22.00;99.90
43641;DHT22;72791;52.546;13.570;2023-10-13T14:49:25;22.10;99.90
43641;DHT22;72791;52.546;13.570;2023-10-13T14:51:51;22.00;99.90
43641;DHT22;72791;52.546;13.570;2023-10-13T14:54:18;21.90;99.90
43641;DHT22;72791;52.546;13.570;2023-10-13T14:56:50;21.90;99.90
43641;DHT22;72791;52.546;13.570;2023-10-13T14:59:21;21.80;99.90
43641;DHT22;72791;52.546;13.570;2023-10-13T15:01:47;21.70;99.90
43641;DHT22;72791;52.546;13.570;2023-10-13T15:04:14;21.60;99.90
43641;DHT22;72791;52.546;13.570;2023-10-13T15:06:40;21.50;99.90
43641;DHT22;72791;52.546;13.570;2023-10-13T15:09:06;21.40;99.90
43641;DHT22;72791;52.546;13.570;2023-10-13T16:01:35;20.40;99.90
43641;DHT22;72791;52.546;13.570;2023-10-13T16:04:01;20.30;99.90
43641;DHT22;72791;52.546;13.570;2023-10-13T16:06:43;20.30;99.90
43641;DHT22;72791;52.546;13.570;2023-10-13T16:09:13;20.30;99.90
43641;DHT22;72791;52.546;13.570;2023-10-13T16:11:45;20.20;99.90
43641;DHT22;72791;52.546;13.570;2023-10-13T16:14:12;20.20;99.90
43641;DHT22;72791;52.546;13.570;2023-10-13T16:16:46;20.20;99.90
43641;DHT22;72791;52.546;13.570;2023-10-13T16:19:16;20.20;99.90
43641;DHT22;72791;52.546;13.570;2023-10-13T16:21:44;20.20;99.90
43641;DHT22;72791;52.546;13.570;2023-10-13T16:24:12;20.20;99.90
43641;DHT22;72791;52.546;13.570;2023-10-13T16:26:44;20.20;99.90
43641;DHT22;72791;52.546;13.570;2023-10-13T16:29:09;20.10;99.90
43641;DHT22;72791;52.546;13.570;2023-10-13T16:31:36;20.10;99.90
43641;DHT22;72791;52.546;13.570;2023-10-13T16:34:03;20.10;99.90
43641;DHT22;72791;52.546;13.570;2023-10-13T16:36:31;20.00;99.90
43641;DHT22;72791;52.546;13.570;2023-10-13T16:38:57;20.00;99.90
43641;DHT22;72791;52.546;13.570;2023-10-13T16:41:24;19.90;99.90
43641;DHT22;72791;52.546;13.570;2023-10-13T16:43:50;19.80;99.90
43641;DHT22;72791;52.546;13.570;2023-10-13T16:46:16;19.80;99.90
43641;DHT22;72791;52.546;13.570;2023-10-13T16:48:43;19.70;99.90
43641;DHT22;72791;52.546;13.570;2023-10-13T16:51:15;19.70;99.90
43641;DHT22;72791;52.546;13.570;2023-10-13T16:53:44;19.60;99.90
43641;DHT22;72791;52.546;13.570;2023-10-13T16:56:17;19.60;99.90
43641;DHT22;72791;52.546;13.570;2023-10-13T16:58:44;19.60;99.90
43641;DHT22;72791;52.546;13.570;2023-10-13T17:01:11;19.70;99.90
43641;DHT22;72791;52.546;13.570;2023-10-13T17:03:39;19.70;99.90